Spokane, WA

5:59 PM PST on February 10, 2016 (GMT -0800)
Craig Rd / White Rd | | Change Station
CLOSE
Current Station
Personal Weather Station
Location: Medical Lake, WA
Elevation: 2405 ft
Nearby Weather Stations

Elev 2405 ft 47.58 °N, 117.62 °W | Updated 53 seconds ago

Overcast
Overcast
37.6 °F
Feels Like 38 °F
N
0.0
Wind Variable Wind from South
Gusts 0.0 mph

Today
High -- | Low -- °F
--% Chance of Precip.
Yesterday
High -- | Low -- °F
Precip. -- in
Pressure 30.30 in
Visibility 10.0 miles
Clouds Mostly Cloudy 9000 ft
Overcast 12000 ft
Windchill 38 °F
Dew Point 34 °F
Humidity 88%
Rainfall 0.00 in
Snow Depth Not available.
7:04 AM 5:05 PM
Waxing Crescent, 8% visible
METAR KSKA 110058Z AUTO 11004KT 10SM BKN090 OVC120 04/03 A3023 RMK AO2 SLP259 T00400030 PWINO $
Pressure 30.30 in
Visibility 10.0 miles
Clouds Mostly Cloudy 9000 ft
Overcast 12000 ft
Windchill 38 °F
Dew Point 34 °F
Humidity 88%
Rainfall 0.00 in
Snow Depth Not available.
7:04 AM 5:05 PM
Waxing Crescent, 8% visible
METAR KSKA 110058Z AUTO 11004KT 10SM BKN090 OVC120 04/03 A3023 RMK AO2 SLP259 T00400030 PWINO $

10-Day Weather Forecast

Almanac

Astronomy

Feb. 10, 2016 Rise Set
Actual Time
Civil Twilight
Nautical Twilight
Astronomical Twilight
Moon
Length of Visible Light
Length of Day
Tomorrow will be .
, % of the Moon is Illuminated

Today's Extremes

State Highs State Lows

Community

WunderPhotos

Upload Photos

1,891,970 photos uploaded!

WunderBlog® & News

Nearby

Air Quality

  Air Quality AQ Index Pollutant
Not available.

Snow Depth

Station Depth Elevation

Earthquake Activity

City Distance Mag. Time & Date
Minimum magnitude displayed is 2.5.

Coastal Water Temperatures

Place Temperature

Stations

Nearby Weather Stations

Station Location Temp. Windchill Dew Point Humidity Wind Precip. Elev Updated Type
                   

Watches & Warnings

There are currently no watches in effect.